Time;durP1;ratioP1;P1;durP2;ratioP2;P2;SDS_P1;SDS_P2;PMS_P1;PMS_P2;Temp;Humidity;BMP_temperature;BMP_pressure;BME280_temperature;BME280_humidity;BME280_pressure;Samples;Min_cycle;Max_cycle;Signal;HPM_P1;HPM_P2
2021/12/04 00:00:44;;;;;;;57.22;47.45;;;16.60;57.20;;;;;;4930772;28;89581;-72
2021/12/04 00:03:10;;;;;;;56.92;47.42;;;16.70;57.20;;;;;;4935298;28;89696;-73
2021/12/04 00:05:38;;;;;;;57.03;47.47;;;16.60;57.20;;;;;;4924785;28;92141;-72
2021/12/04 00:08:04;;;;;;;57.88;47.38;;;16.60;57.10;;;;;;4937169;28;91825;-72
2021/12/04 00:10:31;;;;;;;57.30;47.50;;;16.60;57.10;;;;;;4923340;28;95936;-73
2021/12/04 00:12:57;;;;;;;56.80;47.25;;;16.60;57.10;;;;;;4930116;28;90051;-72
2021/12/04 00:15:22;;;;;;;57.50;47.33;;;16.60;57.20;;;;;;4954981;28;91206;-72
2021/12/04 00:17:48;;;;;;;57.58;47.45;;;16.60;57.00;;;;;;4933989;28;90757;-72
2021/12/04 00:20:14;;;;;;;57.17;47.30;;;16.60;57.00;;;;;;4931266;28;90628;-73
2021/12/04 00:22:40;;;;;;;57.92;47.85;;;16.60;57.10;;;;;;4925468;28;92719;-72
2021/12/04 00:25:07;;;;;;;57.15;47.53;;;16.60;57.10;;;;;;4932504;28;93384;-73
2021/12/04 00:27:33;;;;;;;57.30;47.63;;;16.60;57.10;;;;;;4941844;28;90954;-72
2021/12/04 00:29:59;;;;;;;57.28;47.53;;;16.60;57.10;;;;;;4917696;28;90346;-73
2021/12/04 00:35:00;;;;;;;57.58;47.63;;;16.60;57.20;;;;;;4928836;28;93650;-73
2021/12/04 00:37:58;;;;;;;56.95;47.42;;;16.60;57.10;;;;;;4935416;28;90472;-73
2021/12/04 00:51:08;;;;;;;56.88;47.38;;;16.50;57.20;;;;;;4933569;28;90045;-73
2021/12/04 00:53:34;;;;;;;57.47;47.60;;;16.60;57.10;;;;;;4926507;28;91106;-73
2021/12/04 00:56:00;;;;;;;57.70;47.65;;;16.50;57.10;;;;;;4930130;28;94106;-73
2021/12/04 00:58:25;;;;;;;56.97;47.28;;;16.50;57.10;;;;;;4929585;28;92592;-71
2021/12/04 01:00:51;;;;;;;57.25;47.42;;;16.50;57.20;;;;;;4925269;28;89980;-73
2021/12/04 01:03:17;;;;;;;56.67;47.20;;;16.50;57.10;;;;;;4921535;28;90034;-73
2021/12/04 01:05:42;;;;;;;56.70;47.17;;;16.50;57.20;;;;;;4932159;28;90453;-72
2021/12/04 01:08:08;;;;;;;56.67;47.20;;;16.50;57.00;;;;;;4931155;28;90063;-73
2021/12/04 01:10:35;;;;;;;56.92;47.22;;;16.50;57.10;;;;;;4945041;28;92090;-73
2021/12/04 01:13:04;;;;;;;56.58;47.13;;;16.50;57.10;;;;;;4921177;28;91457;-72
2021/12/04 01:15:30;;;;;;;56.97;47.33;;;16.50;57.20;;;;;;4932816;28;90324;-73
2021/12/04 01:17:55;;;;;;;57.22;47.45;;;16.50;57.10;;;;;;4927145;28;95634;-73
2021/12/04 01:20:21;;;;;;;56.63;47.10;;;16.50;57.10;;;;;;4935734;28;90188;-73
2021/12/04 01:22:47;;;;;;;58.28;47.55;;;16.50;57.20;;;;;;4942949;28;91333;-72
2021/12/04 01:25:12;;;;;;;56.95;47.35;;;16.50;57.20;;;;;;4938968;28;90311;-72
2021/12/04 01:27:38;;;;;;;57.13;47.33;;;16.40;57.20;;;;;;4939963;28;90135;-73
2021/12/04 01:30:06;;;;;;;58.30;47.40;;;16.40;57.10;;;;;;4941627;28;91141;-72
2021/12/04 01:32:32;;;;;;;57.28;47.30;;;16.40;57.20;;;;;;4943618;28;91576;-73
2021/12/04 01:34:57;;;;;;;56.60;47.08;;;16.50;57.20;;;;;;4934723;28;94399;-73
2021/12/04 01:37:23;;;;;;;56.92;47.05;;;16.40;57.10;;;;;;4932968;28;92259;-73
2021/12/04 01:39:49;;;;;;;57.67;47.45;;;16.50;57.20;;;;;;4936831;28;91183;-73
2021/12/04 01:42:18;;;;;;;57.17;47.33;;;16.40;57.70;;;;;;4940311;28;89706;-72
2021/12/04 01:44:46;;;;;;;58.33;47.35;;;16.40;57.10;;;;;;4943624;28;90423;-73
2021/12/04 01:47:14;;;;;;;56.80;47.30;;;16.40;57.30;;;;;;4934926;28;91952;-73
2021/12/04 01:49:40;;;;;;;56.80;47.15;;;16.40;57.20;;;;;;4938261;28;89451;-73
2021/12/04 01:52:07;;;;;;;57.53;46.97;;;16.40;57.30;;;;;;4952256;28;90227;-74
2021/12/04 01:54:33;;;;;;;57.58;47.35;;;16.40;57.20;;;;;;4934918;28;91172;-73
2021/12/04 01:56:59;;;;;;;57.28;47.45;;;16.30;57.30;;;;;;4933636;28;91165;-73
2021/12/04 01:59:27;;;;;;;57.05;47.10;;;16.40;57.30;;;;;;4937917;28;93264;-73
2021/12/04 02:01:53;;;;;;;56.88;47.05;;;16.40;57.40;;;;;;4930780;28;89822;-73
2021/12/04 02:04:18;;;;;;;58.15;47.38;;;16.40;57.40;;;;;;4943641;28;90292;-74
2021/12/04 02:06:44;;;;;;;57.05;47.33;;;16.30;57.30;;;;;;4940644;28;90091;-72
2021/12/04 02:09:11;;;;;;;56.72;47.20;;;16.30;57.30;;;;;;4933252;28;90935;-74
2021/12/04 02:11:37;;;;;;;56.58;47.25;;;16.30;57.40;;;;;;4935133;28;90879;-72
2021/12/04 02:14:02;;;;;;;56.78;47.22;;;16.30;57.50;;;;;;4944081;28;93752;-72
2021/12/04 02:16:28;;;;;;;57.13;47.42;;;16.30;57.40;;;;;;4936487;28;90817;-71
2021/12/04 02:18:54;;;;;;;56.50;47.03;;;16.30;57.50;;;;;;4935912;28;89743;-71
2021/12/04 02:21:19;;;;;;;57.38;47.38;;;16.30;57.40;;;;;;4934214;28;91105;-72
2021/12/04 02:23:45;;;;;;;56.40;47.05;;;16.30;57.30;;;;;;4932627;28;90850;-73
2021/12/04 02:26:13;;;;;;;56.60;47.15;;;16.30;57.40;;;;;;4940129;28;92174;-73
2021/12/04 02:28:41;;;;;;;56.78;47.17;;;16.30;57.40;;;;;;4934297;28;91067;-72
2021/12/04 02:31:07;;;;;;;56.67;47.22;;;16.30;57.50;;;;;;4928009;28;90416;-72
2021/12/04 02:33:33;;;;;;;56.88;47.20;;;16.30;57.50;;;;;;4935807;28;91055;-72
2021/12/04 02:36:02;;;;;;;56.70;47.30;;;16.30;57.40;;;;;;4943007;28;91548;-72
2021/12/04 02:38:27;;;;;;;56.90;47.20;;;16.30;57.40;;;;;;4932879;28;91790;-73
2021/12/04 02:40:56;;;;;;;56.50;47.03;;;16.30;57.50;;;;;;4943444;28;89964;-72
2021/12/04 02:43:22;;;;;;;56.65;47.13;;;16.30;57.50;;;;;;4940520;28;92628;-73
2021/12/04 02:45:48;;;;;;;56.35;47.00;;;16.30;57.50;;;;;;4932062;28;90497;-72
2021/12/04 02:48:16;;;;;;;56.55;47.15;;;16.30;57.60;;;;;;4942765;28;89810;-73
2021/12/04 02:50:42;;;;;;;56.72;47.33;;;16.20;57.60;;;;;;4928220;28;91400;-73
2021/12/04 02:53:07;;;;;;;56.33;47.05;;;16.20;57.60;;;;;;4930872;28;91452;-72
2021/12/04 02:55:34;;;;;;;56.47;47.15;;;16.20;57.40;;;;;;4935398;28;90708;-72
2021/12/04 02:58:00;;;;;;;56.42;47.15;;;16.20;57.60;;;;;;4938227;28;90731;-72
2021/12/04 03:00:27;;;;;;;56.47;46.97;;;16.20;57.70;;;;;;4930756;28;91256;-71
2021/12/04 03:02:54;;;;;;;56.53;47.10;;;16.20;57.50;;;;;;4932742;28;91843;-72
2021/12/04 03:05:24;;;;;;;56.25;47.00;;;16.20;57.60;;;;;;4937504;28;92188;-72
2021/12/04 03:07:51;;;;;;;56.38;46.95;;;16.20;57.50;;;;;;4938718;28;90575;-72
2021/12/04 03:10:17;;;;;;;56.67;47.25;;;16.20;57.80;;;;;;4943630;28;90708;-72
2021/12/04 03:12:43;;;;;;;56.55;47.13;;;16.20;57.60;;;;;;4933693;28;91337;-72
2021/12/04 03:15:09;;;;;;;56.05;46.97;;;16.20;57.50;;;;;;4944530;28;92004;-71
2021/12/04 03:17:34;;;;;;;56.47;47.25;;;16.20;57.40;;;;;;4937666;28;90773;-71
2021/12/04 03:20:01;;;;;;;56.63;47.22;;;16.20;57.50;;;;;;4937893;28;91209;-72
2021/12/04 03:22:27;;;;;;;56.22;47.05;;;16.20;57.50;;;;;;4935210;28;90404;-72
2021/12/04 03:24:55;;;;;;;56.28;47.15;;;16.20;57.40;;;;;;4936569;28;92151;-72
2021/12/04 03:27:22;;;;;;;56.50;47.05;;;16.20;57.60;;;;;;4934616;28;90953;-71
2021/12/04 03:29:52;;;;;;;56.47;47.22;;;16.10;57.40;;;;;;4931605;28;91421;-72
2021/12/04 03:43:03;;;;;;;56.78;47.15;;;16.20;57.60;;;;;;4932782;28;89456;-72
2021/12/04 03:45:29;;;;;;;56.25;47.08;;;16.20;57.70;;;;;;4929569;28;90513;-72
2021/12/04 03:48:04;;;;;;;56.90;47.13;;;16.20;57.70;;;;;;4933638;28;94111;-72
2021/12/04 03:50:29;;;;;;;56.13;46.90;;;16.20;57.60;;;;;;4932173;28;93748;-71
2021/12/04 03:52:55;;;;;;;56.63;47.15;;;16.20;57.50;;;;;;4937590;28;91070;-72
2021/12/04 03:55:20;;;;;;;56.83;47.17;;;16.20;57.50;;;;;;4927932;28;91569;-72
2021/12/04 03:57:46;;;;;;;57.53;47.05;;;16.20;57.50;;;;;;4929369;28;92871;-71
2021/12/04 04:00:18;;;;;;;56.60;47.05;;;16.20;57.70;;;;;;4933398;28;89707;-72
2021/12/04 04:02:43;;;;;;;56.40;47.13;;;16.20;57.70;;;;;;4944229;28;90857;-72
2021/12/04 04:05:09;;;;;;;56.45;47.10;;;16.20;57.60;;;;;;4937099;28;89821;-72
2021/12/04 04:07:35;;;;;;;56.42;47.15;;;16.20;57.70;;;;;;4926534;28;89664;-72
2021/12/04 04:10:01;;;;;;;56.42;47.15;;;16.20;57.60;;;;;;4939623;28;90932;-71
2021/12/04 04:12:26;;;;;;;56.83;47.25;;;16.20;57.60;;;;;;4932670;28;91849;-71
2021/12/04 04:14:52;;;;;;;56.92;47.15;;;16.20;57.50;;;;;;4925327;28;95233;-72
2021/12/04 04:17:17;;;;;;;56.40;47.03;;;16.20;57.50;;;;;;4945191;28;90477;-72
2021/12/04 04:19:43;;;;;;;56.55;47.15;;;16.20;57.50;;;;;;4929334;28;90637;-72
2021/12/04 04:22:09;;;;;;;56.63;47.25;;;16.20;57.40;;;;;;4935092;28;90781;-72
2021/12/04 04:24:34;;;;;;;58.35;47.08;;;16.20;57.50;;;;;;4929867;28;90181;-71
2021/12/04 04:27:00;;;;;;;57.10;47.33;;;16.20;57.40;;;;;;4924336;28;90523;-72
2021/12/04 04:29:26;;;;;;;56.58;47.13;;;16.20;57.50;;;;;;4934795;28;91320;-71
2021/12/04 04:31:54;;;;;;;57.60;47.45;;;16.20;57.40;;;;;;4932190;28;90640;-72
2021/12/04 04:34:35;;;;;;;56.42;47.03;;;16.20;57.50;;;;;;4937239;28;91214;-72
2021/12/04 04:37:14;;;;;;;56.30;47.05;;;16.20;57.50;;;;;;4922717;28;92036;-71
2021/12/04 05:10:23;;;;;;;56.92;47.13;;;16.20;57.60;;;;;;4938931;28;89772;-72
2021/12/04 05:12:53;;;;;;;56.20;47.00;;;16.30;57.60;;;;;;4941426;28;91248;-72
2021/12/04 05:15:57;;;;;;;57.57;47.13;;;16.30;57.50;;;;;;4937864;28;90183;-72
2021/12/04 05:20:53;;;;;;;58.47;47.58;;;16.40;57.60;;;;;;4927855;28;95206;-72
2021/12/04 05:23:23;;;;;;;56.70;47.10;;;16.50;57.50;;;;;;4946370;28;90651;-72
2021/12/04 05:25:50;;;;;;;56.45;47.15;;;16.70;57.30;;;;;;4930852;28;90524;-72
2021/12/04 05:28:17;;;;;;;58.15;47.45;;;16.80;57.30;;;;;;4920025;28;95258;-72
2021/12/04 05:30:43;;;;;;;57.25;47.45;;;16.90;57.00;;;;;;4930123;28;94212;-72
2021/12/04 05:33:08;;;;;;;56.47;47.25;;;16.90;56.70;;;;;;4932199;28;90336;-71
2021/12/04 05:35:34;;;;;;;57.38;47.58;;;17.00;56.70;;;;;;4934248;28;90904;-71
2021/12/04 05:37:59;;;;;;;57.83;47.75;;;17.10;56.80;;;;;;4917426;28;90826;-71
2021/12/04 05:40:28;;;;;;;58.17;47.63;;;17.20;56.70;;;;;;4935597;28;89497;-71
2021/12/04 05:43:00;;;;;;;57.65;47.65;;;17.20;56.40;;;;;;4929231;28;89885;-71
2021/12/04 05:45:27;;;;;;;57.58;47.58;;;17.30;56.50;;;;;;4933148;28;91612;-71
2021/12/04 05:48:02;;;;;;;57.75;47.85;;;17.40;56.20;;;;;;4931520;28;93154;-71
2021/12/04 05:55:52;;;;;;;58.05;47.60;;;17.70;55.80;;;;;;4918269;28;90423;-72
2021/12/04 05:58:20;;;;;;;58.08;47.85;;;17.70;55.60;;;;;;4931653;28;97540;-72
2021/12/04 06:00:46;;;;;;;58.40;48.05;;;17.70;55.50;;;;;;4934153;28;92126;-72
2021/12/04 06:03:12;;;;;;;57.80;47.65;;;17.80;55.30;;;;;;4934346;28;90102;-72
2021/12/04 06:05:38;;;;;;;57.85;47.85;;;17.80;55.30;;;;;;4917574;28;92028;-72
2021/12/04 06:08:04;;;;;;;58.30;48.15;;;17.90;55.30;;;;;;4918661;28;93122;-73
2021/12/04 06:10:30;;;;;;;60.67;48.22;;;17.90;55.10;;;;;;4934641;28;92564;-73
2021/12/04 06:12:55;;;;;;;60.58;48.13;;;18.00;55.20;;;;;;4938145;28;94846;-72
2021/12/04 06:15:21;;;;;;;61.05;48.08;;;18.00;55.10;;;;;;4934484;28;91077;-72
2021/12/04 06:17:49;;;;;;;59.70;48.28;;;17.90;55.20;;;;;;4932377;28;90645;-73
2021/12/04 06:22:59;;;;;;;58.83;48.03;;;17.90;55.20;;;;;;4927542;28;91065;-73
2021/12/04 06:25:25;;;;;;;58.25;48.05;;;18.00;55.30;;;;;;4933313;28;92997;-73
2021/12/04 06:27:52;;;;;;;59.38;48.63;;;18.00;55.20;;;;;;4935362;28;94363;-73
2021/12/04 06:30:18;;;;;;;58.42;48.28;;;18.10;54.90;;;;;;4932848;28;91681;-73
2021/12/04 06:32:47;;;;;;;59.13;48.15;;;18.20;55.20;;;;;;4926662;28;91381;-73
2021/12/04 06:35:14;;;;;;;59.47;48.05;;;18.20;54.60;;;;;;4933393;28;90382;-73
2021/12/04 06:37:41;;;;;;;58.75;48.20;;;18.20;54.60;;;;;;4932022;28;92675;-73
2021/12/04 06:40:08;;;;;;;60.53;48.17;;;18.10;54.60;;;;;;4932139;28;90625;-73
2021/12/04 06:42:34;;;;;;;58.80;48.33;;;18.10;54.50;;;;;;4936611;28;89514;-73
2021/12/04 06:45:01;;;;;;;61.15;48.45;;;18.00;54.70;;;;;;4936852;28;89938;-73
2021/12/04 06:47:27;;;;;;;60.28;48.72;;;18.00;54.90;;;;;;4931259;28;93972;-73
2021/12/04 06:49:57;;;;;;;60.70;48.15;;;17.90;55.00;;;;;;4944006;28;91536;-72
2021/12/04 06:52:26;;;;;;;60.03;48.72;;;17.80;55.10;;;;;;4939730;28;91682;-73
2021/12/04 06:54:57;;;;;;;60.17;48.15;;;17.80;55.20;;;;;;4933773;28;92097;-73
2021/12/04 06:57:23;;;;;;;60.28;48.25;;;17.70;55.20;;;;;;4941524;28;93445;-72
2021/12/04 06:59:51;;;;;;;62.33;48.75;;;17.70;55.30;;;;;;4938433;28;90895;-72
2021/12/04 07:02:16;;;;;;;60.83;49.00;;;17.70;55.30;;;;;;4925132;28;90779;-72
2021/12/04 07:04:43;;;;;;;58.95;48.45;;;17.70;55.40;;;;;;4941860;28;91515;-72
2021/12/04 07:07:09;;;;;;;61.25;48.88;;;17.60;55.30;;;;;;4930307;28;90319;-72
2021/12/04 07:09:36;;;;;;;59.78;48.63;;;17.60;55.40;;;;;;4945956;28;89820;-73
2021/12/04 07:12:03;;;;;;;60.72;48.95;;;17.60;55.40;;;;;;4939011;28;90562;-72
2021/12/04 07:14:30;;;;;;;60.40;48.75;;;17.50;55.40;;;;;;4936151;28;90343;-72
2021/12/04 07:16:59;;;;;;;59.42;48.80;;;17.50;55.40;;;;;;4951952;28;90738;-73
2021/12/04 07:19:25;;;;;;;60.13;48.47;;;17.50;55.60;;;;;;4942249;28;90118;-73
2021/12/04 07:21:50;;;;;;;61.05;49.22;;;17.40;55.50;;;;;;4936601;28;93093;-73
2021/12/04 07:24:16;;;;;;;59.15;48.67;;;17.50;55.80;;;;;;4960622;28;95933;-74
2021/12/04 07:26:43;;;;;;;61.40;49.22;;;17.40;55.60;;;;;;4948133;28;91647;-74
2021/12/04 07:29:08;;;;;;;62.55;48.60;;;17.40;55.70;;;;;;4946691;28;89744;-73
2021/12/04 07:31:35;;;;;;;59.53;48.25;;;17.40;55.70;;;;;;4936403;28;89596;-72
2021/12/04 07:34:01;;;;;;;60.97;49.03;;;17.30;55.80;;;;;;4935585;28;91222;-73
2021/12/04 07:36:27;;;;;;;60.25;48.88;;;17.30;55.80;;;;;;4943587;28;92964;-74
2021/12/04 07:38:53;;;;;;;61.20;48.40;;;17.40;55.70;;;;;;4943838;28;89579;-74
2021/12/04 07:41:19;;;;;;;61.50;49.30;;;17.30;55.70;;;;;;4937276;28;90778;-74
2021/12/04 07:43:45;;;;;;;59.38;48.38;;;17.30;55.80;;;;;;4940910;28;94654;-73
2021/12/04 07:46:11;;;;;;;60.80;48.63;;;17.30;55.80;;;;;;4923328;28;91373;-74
2021/12/04 07:48:37;;;;;;;59.17;48.72;;;17.30;56.00;;;;;;4934459;28;90260;-74
2021/12/04 07:51:04;;;;;;;60.40;49.15;;;17.30;55.80;;;;;;4942268;28;90272;-74
2021/12/04 07:53:31;;;;;;;60.33;49.17;;;17.20;55.80;;;;;;4931511;28;93256;-74
2021/12/04 07:55:57;;;;;;;60.35;49.10;;;17.20;55.90;;;;;;4942094;28;90545;-74
2021/12/04 07:58:22;;;;;;;60.78;49.17;;;17.20;55.80;;;;;;4937157;28;89814;-73
2021/12/04 08:00:49;;;;;;;59.42;48.75;;;17.20;55.90;;;;;;4939270;28;92207;-74
2021/12/04 08:03:14;;;;;;;60.55;49.38;;;17.20;55.90;;;;;;4948744;28;91906;-73
2021/12/04 08:05:41;;;;;;;59.45;48.83;;;17.20;56.00;;;;;;4932211;28;89872;-72
2021/12/04 08:08:06;;;;;;;61.33;49.40;;;17.20;56.10;;;;;;4925549;28;90632;-73
2021/12/04 08:10:34;;;;;;;60.42;49.10;;;17.10;56.20;;;;;;4938360;28;89868;-72
2021/12/04 08:13:02;;;;;;;61.30;49.38;;;17.10;56.10;;;;;;4941591;28;90564;-73
2021/12/04 08:15:29;;;;;;;61.08;49.30;;;17.10;56.10;;;;;;4937691;28;90877;-73
2021/12/04 08:17:55;;;;;;;60.10;49.35;;;17.10;56.20;;;;;;4942048;28;89308;-73
2021/12/04 08:20:21;;;;;;;60.30;49.42;;;17.10;56.10;;;;;;4940744;28;89760;-73
2021/12/04 08:22:47;;;;;;;59.80;49.15;;;17.10;56.20;;;;;;4935832;28;91254;-71
2021/12/04 08:25:16;;;;;;;59.92;49.25;;;17.10;56.20;;;;;;4931149;28;90950;-73
2021/12/04 08:27:42;;;;;;;60.67;49.20;;;17.10;56.30;;;;;;4934649;28;94822;-73
2021/12/04 08:30:12;;;;;;;61.25;49.40;;;17.10;56.10;;;;;;4924865;28;91430;-71
2021/12/04 08:32:38;;;;;;;61.92;50.17;;;17.10;56.30;;;;;;4927247;28;91857;-71
2021/12/04 08:35:06;;;;;;;60.90;49.58;;;17.20;56.20;;;;;;4941809;28;90162;-72
2021/12/04 08:37:31;;;;;;;61.28;49.75;;;17.20;56.00;;;;;;4930833;28;90201;-71
2021/12/04 08:39:57;;;;;;;60.17;49.15;;;17.20;56.00;;;;;;4946405;28;89941;-71
2021/12/04 08:42:24;;;;;;;60.97;49.47;;;17.30;56.00;;;;;;4922186;28;91153;-71
2021/12/04 08:44:50;;;;;;;60.40;49.50;;;17.30;55.80;;;;;;4915677;28;90808;-71
2021/12/04 08:47:16;;;;;;;60.45;49.53;;;17.30;55.80;;;;;;4940641;28;92125;-71
2021/12/04 08:49:43;;;;;;;60.47;49.38;;;17.30;55.80;;;;;;4937415;28;91775;-71
2021/12/04 08:52:10;;;;;;;63.00;49.80;;;17.30;55.80;;;;;;4928243;28;91116;-71
2021/12/04 08:54:37;;;;;;;61.17;49.35;;;17.30;55.80;;;;;;4940676;28;89966;-71
2021/12/04 08:57:04;;;;;;;60.55;49.72;;;17.30;55.90;;;;;;4944912;28;90753;-70
2021/12/04 08:59:30;;;;;;;61.33;49.75;;;17.30;55.80;;;;;;4935867;28;90579;-71
2021/12/04 09:01:55;;;;;;;61.08;49.33;;;17.30;55.80;;;;;;4929023;28;91146;-70
2021/12/04 09:04:24;;;;;;;60.50;49.50;;;17.40;55.80;;;;;;4935892;28;90211;-71
2021/12/04 09:06:51;;;;;;;61.30;49.33;;;17.40;55.80;;;;;;4939208;28;89600;-71
2021/12/04 09:09:18;;;;;;;61.33;49.63;;;17.40;55.80;;;;;;4933935;28;90456;-71
2021/12/04 09:11:50;;;;;;;60.65;49.47;;;17.30;55.70;;;;;;4919264;28;92065;-71
2021/12/04 09:14:17;;;;;;;59.70;49.33;;;17.30;55.90;;;;;;4927998;28;93769;-71
2021/12/04 09:16:43;;;;;;;63.55;49.65;;;17.30;56.00;;;;;;4929579;28;91044;-71
2021/12/04 09:19:10;;;;;;;62.05;49.53;;;17.30;56.10;;;;;;4922394;28;90515;-71
2021/12/04 09:21:37;;;;;;;61.22;49.55;;;17.30;56.10;;;;;;4925020;28;96484;-72
2021/12/04 09:24:13;;;;;;;61.70;49.72;;;17.30;56.10;;;;;;4935928;28;91521;-71
2021/12/04 09:29:38;;;;;;;61.75;49.60;;;17.20;56.20;;;;;;4922509;28;92884;-71
2021/12/04 09:35:24;;;;;;;60.15;49.50;;;17.20;56.10;;;;;;4932363;28;92018;-71
2021/12/04 09:59:08;;;;;;;61.10;49.17;;;17.30;56.00;;;;;;4935730;28;95246;-72
2021/12/04 10:05:32;;;;;;;59.95;49.25;;;17.50;55.90;;;;;;4934950;28;90375;-73
2021/12/04 10:21:13;;;;;;;59.95;48.92;;;17.50;57.00;;;;;;4936007;28;91889;-73
2021/12/04 10:34:34;;;;;;;59.30;48.40;;;17.30;57.60;;;;;;4928858;28;92343;-73
2021/12/04 10:37:17;;;;;;;58.65;48.38;;;17.20;58.00;;;;;;4925730;28;91307;-73
2021/12/04 10:39:43;;;;;;;61.28;48.13;;;17.20;57.90;;;;;;4934126;28;91817;-73
2021/12/04 10:42:16;;;;;;;61.20;48.40;;;17.20;58.30;;;;;;4931335;28;90638;-73
2021/12/04 10:44:48;;;;;;;64.93;48.17;;;17.10;58.00;;;;;;4928527;28;92329;-74
2021/12/04 10:47:21;;;;;;;68.05;48.90;;;17.10;58.10;;;;;;4935304;28;90839;-74
2021/12/04 10:50:00;;;;;;;60.05;48.20;;;17.10;58.10;;;;;;4939054;28;90457;-73
2021/12/04 10:52:36;;;;;;;63.65;48.22;;;17.10;58.10;;;;;;4937489;28;90320;-74
2021/12/04 10:56:30;;;;;;;61.20;48.10;;;17.10;58.10;;;;;;4934751;28;91355;-73
2021/12/04 11:28:24;;;;;;;64.07;48.33;;;17.30;57.90;;;;;;4922326;28;90931;-75
2021/12/04 11:38:55;;;;;;;64.63;48.83;;;18.10;57.10;;;;;;4937730;28;92903;-74
2021/12/04 11:44:45;;;;;;;63.42;48.50;;;18.30;55.90;;;;;;4929902;28;91193;-73
2021/12/04 11:46:46;;;;;;;63.73;49.37;;;18.40;55.50;;;;;;4922168;28;91477;-74
2021/12/04 11:49:13;;;;;;;64.68;49.42;;;18.40;55.90;;;;;;4933045;28;91465;-74
2021/12/04 11:52:17;;;;;;;65.45;50.13;;;18.50;55.80;;;;;;4927829;28;92958;-73
2021/12/04 11:54:47;;;;;;;71.78;50.88;;;18.50;55.80;;;;;;4936384;28;91521;-74
2021/12/04 11:57:15;;;;;;;74.13;49.92;;;18.60;56.40;;;;;;4933507;28;91092;-74
2021/12/04 11:59:42;;;;;;;67.03;49.35;;;18.60;55.90;;;;;;4936671;28;91940;-73
2021/12/04 12:02:19;;;;;;;66.32;49.83;;;18.60;55.60;;;;;;4944352;28;94093;-74
2021/12/04 12:04:55;;;;;;;64.53;49.38;;;18.60;55.50;;;;;;4948595;28;93137;-74
2021/12/04 12:07:27;;;;;;;70.95;49.45;;;18.50;55.40;;;;;;4943046;28;90303;-74
2021/12/04 12:10:12;;;;;;;66.13;49.33;;;18.60;55.20;;;;;;4946306;28;89873;-74
2021/12/04 12:12:41;;;;;;;66.28;49.78;;;18.60;55.40;;;;;;4940067;28;92477;-74
2021/12/04 12:15:27;;;;;;;68.93;49.83;;;18.60;55.60;;;;;;4949517;28;90729;-73
2021/12/04 12:17:54;;;;;;;64.68;49.28;;;18.60;55.40;;;;;;4942174;28;90393;-74
2021/12/04 12:20:37;;;;;;;68.40;49.60;;;18.60;55.20;;;;;;4939082;28;92120;-74
2021/12/04 12:23:07;;;;;;;63.22;49.15;;;18.60;55.30;;;;;;4959717;28;90940;-73
2021/12/04 12:25:55;;;;;;;62.90;49.60;;;18.60;55.00;;;;;;4935271;28;91731;-73
2021/12/04 12:34:15;;;;;;;62.92;49.13;;;18.70;54.60;;;;;;4938425;28;91897;-73
2021/12/04 12:36:41;;;;;;;63.72;49.00;;;18.70;54.50;;;;;;4942133;28;92464;-74
2021/12/04 12:39:07;;;;;;;63.88;49.45;;;18.70;54.40;;;;;;4945816;28;91835;-73
2021/12/04 12:41:48;;;;;;;63.55;49.22;;;18.60;54.40;;;;;;4945466;28;90940;-74
2021/12/04 12:44:25;;;;;;;62.80;49.10;;;18.60;54.40;;;;;;4941124;28;90889;-74
2021/12/04 12:47:03;;;;;;;62.80;49.33;;;18.60;54.50;;;;;;4946080;28;93736;-73
2021/12/04 12:49:36;;;;;;;64.50;49.58;;;18.60;54.70;;;;;;4941200;28;89776;-73
2021/12/04 12:52:26;;;;;;;61.15;49.28;;;18.60;54.40;;;;;;4936231;28;90168;-74
2021/12/04 12:55:10;;;;;;;63.92;48.97;;;18.70;54.00;;;;;;4940607;28;92391;-73
2021/12/04 12:57:37;;;;;;;64.95;49.45;;;18.70;54.40;;;;;;4927948;28;91069;-73
2021/12/04 13:11:45;;;;;;;61.03;48.58;;;18.80;54.50;;;;;;4932839;28;90628;-74
2021/12/04 13:14:19;;;;;;;63.85;49.35;;;18.90;54.30;;;;;;4932348;28;90891;-73
2021/12/04 13:17:07;;;;;;;63.53;49.55;;;19.00;54.20;;;;;;4945023;28;91511;-73
2021/12/04 13:19:37;;;;;;;65.72;49.17;;;19.10;54.40;;;;;;4938322;28;95025;-73
2021/12/04 13:22:12;;;;;;;67.75;49.45;;;19.20;54.40;;;;;;4941973;28;90495;-73
2021/12/04 13:24:40;;;;;;;116.40;72.78;;;19.30;54.80;;;;;;4941450;28;89624;-74
2021/12/04 13:29:44;;;;;;;102.05;67.63;;;19.30;55.90;;;;;;4931936;28;91792;-73
2021/12/04 13:32:12;;;;;;;90.07;64.13;;;19.30;56.10;;;;;;4931709;28;92520;-73
2021/12/04 13:34:40;;;;;;;97.35;62.85;;;19.30;56.60;;;;;;4931271;28;90885;-74
2021/12/04 13:37:06;;;;;;;81.75;60.53;;;19.40;56.60;;;;;;4928984;28;91207;-74
2021/12/04 13:39:33;;;;;;;80.47;58.35;;;19.40;56.50;;;;;;4918844;28;94399;-73
2021/12/04 13:41:59;;;;;;;86.50;58.17;;;19.40;56.20;;;;;;4928571;28;90322;-73
2021/12/04 13:44:27;;;;;;;88.95;56.95;;;19.40;56.10;;;;;;4928865;28;91489;-73
2021/12/04 13:47:06;;;;;;;76.75;54.92;;;19.40;56.00;;;;;;4920794;28;95367;-73
2021/12/04 13:49:39;;;;;;;81.68;54.05;;;19.50;55.60;;;;;;4938686;28;92369;-74
2021/12/04 13:52:10;;;;;;;73.03;53.45;;;19.50;55.40;;;;;;4946589;28;89659;-73
2021/12/04 13:54:47;;;;;;;72.32;53.78;;;19.50;55.80;;;;;;4937897;28;91260;-73
2021/12/04 13:57:14;;;;;;;72.65;53.70;;;19.50;55.50;;;;;;4933118;28;91339;-73
2021/12/04 13:59:42;;;;;;;74.68;52.42;;;19.50;55.00;;;;;;4920877;28;91480;-73
2021/12/04 14:02:22;;;;;;;74.90;52.60;;;19.50;55.10;;;;;;4939407;28;95576;-73
2021/12/04 14:04:59;;;;;;;72.50;52.33;;;19.50;54.80;;;;;;4923438;28;91943;-73
2021/12/04 14:07:26;;;;;;;68.57;52.35;;;19.40;54.80;;;;;;4929844;28;92697;-73
2021/12/04 14:09:51;;;;;;;69.00;52.30;;;19.40;55.40;;;;;;4928642;28;91298;-73
2021/12/04 14:12:17;;;;;;;66.90;52.00;;;19.40;55.40;;;;;;4936194;28;90485;-73
2021/12/04 14:14:42;;;;;;;65.20;51.55;;;19.40;55.20;;;;;;4921716;28;90439;-73
2021/12/04 14:17:12;;;;;;;68.20;51.25;;;19.30;55.00;;;;;;4940421;28;91416;-74
2021/12/04 14:19:38;;;;;;;66.63;51.42;;;19.30;55.40;;;;;;4929473;28;90447;-73
2021/12/04 14:22:10;;;;;;;69.03;51.17;;;19.30;55.10;;;;;;4938861;28;89590;-73
2021/12/04 14:24:57;;;;;;;65.35;51.35;;;19.20;55.20;;;;;;4936724;28;90668;-73
2021/12/04 14:27:26;;;;;;;69.65;51.10;;;19.20;55.30;;;;;;4930112;28;91167;-73
2021/12/04 14:29:56;;;;;;;65.97;51.20;;;19.10;55.40;;;;;;4924878;28;92751;-74
2021/12/04 14:32:29;;;;;;;64.95;50.60;;;19.10;55.20;;;;;;4930473;28;89954;-73
2021/12/04 14:35:09;;;;;;;63.80;50.47;;;19.10;55.40;;;;;;4929729;28;91348;-73
2021/12/04 14:37:40;;;;;;;67.75;50.35;;;19.00;55.30;;;;;;4923781;28;91194;-73
2021/12/04 14:40:09;;;;;;;67.00;50.67;;;19.00;55.20;;;;;;4947647;28;91200;-73
2021/12/04 14:42:36;;;;;;;66.03;50.83;;;18.90;55.60;;;;;;4939399;28;89911;-73
2021/12/04 14:45:14;;;;;;;63.97;50.13;;;18.90;55.60;;;;;;4931197;28;90821;-73
2021/12/04 14:47:50;;;;;;;66.90;50.15;;;18.90;55.50;;;;;;4941853;28;91290;-74
2021/12/04 14:50:17;;;;;;;65.70;50.45;;;18.80;55.50;;;;;;4940154;28;92765;-73
2021/12/04 14:52:49;;;;;;;62.65;49.45;;;18.80;55.50;;;;;;4930554;28;90815;-72
2021/12/04 14:55:21;;;;;;;66.18;50.75;;;18.80;55.20;;;;;;4936406;28;93047;-73
2021/12/04 14:57:47;;;;;;;62.63;49.78;;;18.80;55.40;;;;;;4928961;28;92429;-73
2021/12/04 15:00:22;;;;;;;64.30;50.15;;;18.80;55.30;;;;;;4932049;28;90073;-74
2021/12/04 15:03:11;;;;;;;64.60;49.70;;;18.70;55.10;;;;;;4932215;28;91456;-73
2021/12/04 15:05:43;;;;;;;63.45;49.97;;;18.70;55.40;;;;;;4933791;28;89847;-73
2021/12/04 15:08:20;;;;;;;64.68;50.35;;;18.70;55.40;;;;;;4940266;28;97019;-73
2021/12/04 15:10:58;;;;;;;63.42;50.10;;;18.60;55.40;;;;;;4952656;28;90204;-73
2021/12/04 15:13:26;;;;;;;63.25;49.88;;;18.60;55.30;;;;;;4940463;28;90265;-73
2021/12/04 15:15:53;;;;;;;67.38;49.63;;;18.60;55.60;;;;;;4952088;28;89736;-72
2021/12/04 15:18:23;;;;;;;63.15;49.80;;;18.60;55.30;;;;;;4936983;28;90466;-73
2021/12/04 15:20:55;;;;;;;62.88;49.38;;;18.60;55.40;;;;;;4936802;28;91610;-73
2021/12/04 15:23:23;;;;;;;64.25;49.42;;;18.60;55.00;;;;;;4938184;28;90339;-73
2021/12/04 15:25:54;;;;;;;65.72;49.88;;;18.60;54.80;;;;;;4952781;28;91515;-73
2021/12/04 15:28:22;;;;;;;68.03;49.58;;;18.60;54.80;;;;;;4936730;28;92056;-74
2021/12/04 15:30:51;;;;;;;67.00;50.58;;;18.60;54.90;;;;;;4928327;28;90484;-73
2021/12/04 15:33:25;;;;;;;63.92;49.50;;;18.70;55.00;;;;;;4930541;28;91229;-73
2021/12/04 15:35:52;;;;;;;64.25;49.10;;;18.70;55.10;;;;;;4941427;28;91079;-73